AirNav   Air Wisconsin pilot careers
 
 1520 users online  

6NY7 Piolis Brookside Airport
Kerhonkson, New York, USA

GOING TO KERHONKSON?


FAA INFORMATION EFFECTIVE 15 AUGUST 2019

Location

FAA Identifier: 6NY7
Lat/Long: 41-51-55.3340N 074-19-58.5420W
41-51.922233N 074-19.975700W
41.8653706,-74.3329283
(estimated)
Elevation: 1060 ft. / 323 m (estimated)
Variation: 13W (1985)
From city: 6 miles NW of KERHONKSON, NY
Time zone: UTC -4 (UTC -5 during Standard Time)
Zip code: 12446

Airport Operations

Airport use: Private use. Permission required prior to landing
Activation date: 02/1966
Control tower: no
ARTCC: NEW YORK CENTER
FSS: NEW YORK FLIGHT SERVICE STATION
Attendance: IREG
Wind indicator: yes
Segmented circle: no

Nearby radio navigation aids

VOR radial/distance  VOR name  Freq  Var
IGNr310/25.8KINGSTON VOR/DME117.6012W
HUOr034/29.7HUGUENOT VOR/DME116.1011W
PWLr292/33.2PAWLING VOR/DME114.3012W
DNYr135/33.6DELANCEY VOR/DME112.1011W

 
NDB name  Hdg/Dist  Freq  Var  ID
STANWYCK339/24.026112WSKU ... -.- ..-
PHILMONT242/35.827213WPFH .--. ..-. ....

Airport Services

Airframe service: NONE
Powerplant service: NONE

Runway Information

Runway 14/32

Dimensions: 2600 x 75 ft. / 792 x 23 m
Surface: turf
Operational restrictions: LAND ON RWY 32, TAKEOFF ON RWY 14.
RUNWAY 14  RUNWAY 32
Traffic pattern: leftleft
Obstructions: trees hillhill

Airport Ownership and Management from official FAA records

Ownership: Privately-owned
Owner: LAWRENCE PIOLI
RR 2 BOX 640
KERHONKSON, NY 12446
Phone 914-626-7000

Airport Operational Statistics

Aircraft based on the field: 2
Single engine airplanes: 2
    

Additional Remarks

BE ALERT FOR STEEP HILL ON APCH END RY 32.
FOR CD CTC NEW YORK APCH AT 516-683-2448.

Instrument Procedures

There are no published instrument procedures at 6NY7.

Some nearby airports with instrument procedures:

N89 - Joseph Y Resnick Airport (8 nm S)
N82 - Wurtsboro-Sullivan County Airport (17 nm S)
20N - Kingston-Ulster Airport (18 nm NE)
KMGJ - Orange County Airport (21 nm S)
KMSV - Sullivan County International Airport (23 nm SW)
 
Loc | Ops | Rwys | IFR | FBO | Links
Com | Nav | Svcs | Stats | Notes
Area around 6NY7 (Piolis Brookside Airport)
 
Road maps at: MapQuest Bing Google
 
Aerial photo
No photo
 
Sectional chart

 
Airport distance calculator
Flying to Piolis Brookside Airport? Find the distance to fly.

From to 6NY7

Sunrise and sunset
Times for 21-Aug-2019
 Local
(UTC-4)
 Zulu
(UTC)
Morning civil twilight05:4309:43
Sunrise06:1310:13
Sunset19:4823:48
Evening civil twilight20:1800:18

Current date and time
Zulu (UTC)  21-Aug-2019 19:05:53
Local (UTC-4)  21-Aug-2019 15:05:53
 
METAR
KMGJ 
21nm S 
SuperAWOS
211854Z AUTO 22010KT 10SM FEW030 SCT110 28/22 A2987 RMK AO2 SLP114 T02780222
KMSV 
22nm SW 
211856Z AUTO VRB05KT 10SM FEW025 BKN039 BKN075 26/22 A2993 RMK AO2 RAB14E53 SLP126 P0000 T02610217
KPOU 
24nm SE 
211853Z 00000KT 10SM FEW022 SCT029 28/23 A2986 RMK AO2 SLP106 T02830228
KSWF 
25nm SE 
211845Z 26008KT 8SM FEW030 BKN050 29/23 A2989
TAF
KPOU 
24nm SE 
211748Z 2118/2218 VRB03KT P6SM FEW035 BKN050 BKN070 TEMPO 2122/2201 25005G20KT 4SM TSRA OVC040CB FM220300 19004KT P6SM BKN250 FM221200 28004KT P6SM SCT100
KSWF 
25nm SE 
211730Z 2118/2224 26006KT P6SM SCT050 FM212000 20014KT P6SM VCTS SCT020 BKN040CB FM212300 20010KT P6SM VCTS SCT020 BKN040CB FM220200 24007KT P6SM FEW030 BKN050 FM220400 24005KT 6SM BR FEW030 BKN250 FM221100 27006KT P6SM FEW030 BKN250 FM221500 27008KT P6SM SCT040 BKN250 AMD NOT SKED
NOTAMs
Click for the latest NOTAMs
NOTAMs are issued by the DoD/FAA and will open in a separate window not controlled by AirNav.

 

 
 

Would you like to see your business listed on this page?

 If your business provides an interesting product or service to pilots, flight crews, aircraft, or users of the Piolis Brookside Airport, you should consider listing it here.  To start the listing process, click on the button below
 
Add a business
 

Other Pages about Piolis Brookside Airport

Update a link
 
Copyright © AirNav, LLC. All rights reserved. Privacy Policy  Contact